createdAt,value
2019-06-01T00:01:05.762Z,80.80
2019-06-01T00:03:32.497Z,80.87
2019-06-01T00:05:59.224Z,81.78
2019-06-01T00:08:25.952Z,78.64
2019-06-01T00:10:52.677Z,80.77
2019-06-01T00:13:19.420Z,81.49
2019-06-01T00:15:46.213Z,82.28
2019-06-01T00:18:12.877Z,82.64
2019-06-01T00:20:40.070Z,81.75
2019-06-01T00:23:06.370Z,82.15
2019-06-01T00:25:33.101Z,82.96
2019-06-01T00:27:59.836Z,79.62
2019-06-01T00:30:27.525Z,81.36
2019-06-01T00:32:53.350Z,81.84
2019-06-01T00:35:20.094Z,82.83
2019-06-01T00:37:47.614Z,81.46
2019-06-01T00:40:13.584Z,80.24
2019-06-01T00:42:40.318Z,82.15
2019-06-01T00:45:07.050Z,82.87
2019-06-01T00:47:33.785Z,82.75
2019-06-01T00:50:00.509Z,82.05
2019-06-01T00:52:27.251Z,82.55
2019-06-01T00:54:54.006Z,81.81
2019-06-01T00:57:22.267Z,81.67
2019-06-01T00:59:48.093Z,83.81
2019-06-01T01:02:14.265Z,83.79
2019-06-01T01:04:41.046Z,84.84
2019-06-01T01:07:07.784Z,84.71
2019-06-01T01:09:34.522Z,86.34
2019-06-01T01:12:01.250Z,87.49
2019-06-01T01:14:28.022Z,87.43
2019-06-01T01:16:55.768Z,87.69
2019-06-01T01:19:21.523Z,84.95
2019-06-01T01:21:49.882Z,85.51
2019-06-01T01:24:15.550Z,84.71
2019-06-01T01:26:42.283Z,85.86
2019-06-01T01:29:09.027Z,86.10
2019-06-01T01:31:35.759Z,85.77
2019-06-01T01:34:02.490Z,84.19
2019-06-01T01:36:29.234Z,85.24
2019-06-01T01:38:56.316Z,85.42
2019-06-01T01:41:22.768Z,83.12
2019-06-01T01:43:50.373Z,81.92
2019-06-01T01:46:16.230Z,84.32
2019-06-01T01:48:42.986Z,85.42
2019-06-01T01:51:09.706Z,86.23
2019-06-01T01:53:36.438Z,85.87
2019-06-01T01:56:03.154Z,83.83
2019-06-01T01:58:29.895Z,85.20
2019-06-01T02:00:58.402Z,87.59
2019-06-01T02:03:23.401Z,89.85
2019-06-01T02:05:50.748Z,85.14
2019-06-01T02:08:16.896Z,87.10
2019-06-01T02:10:43.638Z,83.13
2019-06-01T02:13:10.358Z,85.72
2019-06-01T02:15:37.120Z,85.98
2019-06-01T02:18:04.058Z,85.64
2019-06-01T02:20:30.878Z,84.83
2019-06-01T02:22:58.887Z,85.16
2019-06-01T02:25:24.334Z,82.25
2019-06-01T02:27:51.080Z,84.83
2019-06-01T02:30:17.827Z,85.84
2019-06-01T02:32:44.559Z,86.40
2019-06-01T02:35:11.296Z,85.33
2019-06-01T02:37:38.044Z,82.99
2019-06-01T02:40:05.460Z,80.90
2019-06-01T02:42:31.530Z,79.51
2019-06-01T02:44:59.206Z,80.01
2019-06-01T02:47:25.070Z,80.24
2019-06-01T02:49:51.808Z,80.71
2019-06-01T02:52:18.526Z,83.57
2019-06-01T02:54:45.268Z,85.75
2019-06-01T02:57:11.987Z,86.10
2019-06-01T02:59:38.723Z,85.56
2019-06-01T03:02:10.618Z,84.31
2019-06-01T03:04:32.178Z,85.92
2019-06-01T03:06:59.534Z,82.74
2019-06-01T03:09:25.643Z,84.19
2019-06-01T03:11:53.082Z,81.06
2019-06-01T03:14:19.846Z,78.90
2019-06-01T03:16:46.570Z,82.15
2019-06-01T03:19:13.786Z,82.20
2019-06-01T03:21:40.523Z,82.72
2019-06-01T03:24:08.195Z,82.89
2019-06-01T03:26:39.784Z,84.87
2019-06-01T03:29:07.274Z,87.02
2019-06-01T03:31:33.264Z,87.11
2019-06-01T03:34:01.533Z,83.52
2019-06-01T03:36:26.813Z,85.41
2019-06-01T03:38:53.551Z,85.30
2019-06-01T03:41:20.279Z,83.95
2019-06-01T03:43:47.010Z,84.37
2019-06-01T03:46:13.729Z,85.42
2019-06-01T03:48:40.466Z,84.90
2019-06-01T03:51:08.300Z,83.57
2019-06-01T03:53:33.915Z,80.61
2019-06-01T03:56:01.726Z,81.62
2019-06-01T03:58:27.459Z,80.84
2019-06-01T04:00:54.194Z,79.26
2019-06-01T04:03:20.918Z,81.94
2019-06-01T04:05:47.655Z,81.34
2019-06-01T04:08:14.395Z,80.51
2019-06-01T04:10:41.112Z,80.85
2019-06-01T04:13:07.851Z,81.32
2019-06-01T04:15:34.608Z,80.89
2019-06-01T04:18:01.901Z,79.93
2019-06-01T04:20:28.075Z,79.03
2019-06-01T04:22:54.890Z,77.96
2019-06-01T04:25:21.623Z,79.30
2019-06-01T04:27:48.366Z,79.88
2019-06-01T04:30:15.094Z,80.28
2019-06-01T04:32:49.748Z,79.76
2019-06-01T04:35:08.990Z,80.39
2019-06-01T04:37:35.266Z,79.34
2019-06-01T04:40:03.241Z,79.06
2019-06-01T04:42:28.742Z,80.54
2019-06-01T04:44:55.492Z,79.06
2019-06-01T04:47:22.238Z,76.96
2019-06-01T04:49:48.964Z,77.22
2019-06-01T04:52:15.706Z,75.89
2019-06-01T04:54:42.450Z,75.22
2019-06-01T04:57:09.358Z,75.35
2019-06-01T04:59:37.902Z,75.22
2019-06-01T05:02:02.842Z,77.53
2019-06-01T05:04:29.583Z,76.29
2019-06-01T05:06:56.318Z,75.08
2019-06-01T05:09:23.055Z,76.13
2019-06-01T05:11:49.803Z,74.30
2019-06-01T05:14:16.728Z,75.98
2019-06-01T05:16:43.378Z,75.63
2019-06-01T05:19:10.195Z,75.77
2019-06-01T05:21:36.878Z,73.76
2019-06-01T05:24:03.605Z,75.36
2019-06-01T05:26:30.342Z,74.95
2019-06-01T05:28:57.092Z,73.77
2019-06-01T05:31:25.374Z,75.47
2019-06-01T05:33:50.582Z,74.74
2019-06-01T05:36:18.325Z,74.59
2019-06-01T05:38:44.066Z,73.71
2019-06-01T05:41:11.957Z,72.50
2019-06-01T05:43:37.544Z,72.73
2019-06-01T05:46:04.277Z,72.88
2019-06-01T05:48:31.022Z,74.01
2019-06-01T05:50:57.754Z,72.60
2019-06-01T05:53:24.531Z,72.58
2019-06-01T05:55:51.250Z,71.20
2019-06-01T05:58:19.509Z,69.95
2019-06-01T06:00:44.721Z,71.79
2019-06-01T06:03:14.919Z,68.48
2019-06-01T06:05:38.231Z,68.11
2019-06-01T06:08:05.376Z,70.69
2019-06-01T06:10:32.093Z,67.96
2019-06-01T06:12:58.830Z,69.08
2019-06-01T06:15:25.658Z,69.51
2019-06-01T06:17:52.410Z,70.17
2019-06-01T06:20:20.143Z,69.43
2019-06-01T06:22:45.891Z,69.74
2019-06-01T06:25:14.248Z,69.41
2019-06-01T06:27:39.465Z,69.81
2019-06-01T06:30:06.238Z,67.90
2019-06-01T06:32:32.970Z,66.52
2019-06-01T06:34:59.808Z,66.90
2019-06-01T06:37:26.557Z,65.66
2019-06-01T06:39:53.290Z,65.41
2019-06-01T06:42:20.344Z,64.93
2019-06-01T06:44:46.762Z,65.25
2019-06-01T06:47:14.628Z,66.73
2019-06-01T06:49:40.246Z,65.25
2019-06-01T06:52:06.966Z,66.66
2019-06-01T06:54:33.711Z,66.04
2019-06-01T06:57:00.446Z,65.72
2019-06-01T06:59:27.182Z,67.48
2019-06-01T07:01:53.925Z,65.69
2019-06-01T07:04:21.376Z,63.80
2019-06-01T07:06:47.414Z,64.24
2019-06-01T07:09:14.178Z,64.50
2019-06-01T07:11:40.900Z,66.40
2019-06-01T07:14:07.646Z,65.42
2019-06-01T07:16:34.411Z,62.14
2019-06-01T07:19:01.176Z,62.66
2019-06-01T07:21:27.944Z,63.66
2019-06-01T07:23:54.684Z,65.43
2019-06-01T07:26:21.946Z,62.88
2019-06-01T07:28:48.248Z,62.15
2019-06-01T07:31:14.962Z,61.90
2019-06-01T07:33:41.695Z,61.76
2019-06-01T07:36:08.443Z,59.91
2019-06-01T07:38:35.154Z,62.06
2019-06-01T07:41:01.874Z,62.68
2019-06-01T07:43:28.963Z,62.13
2019-06-01T07:45:55.338Z,61.35
2019-06-01T07:48:23.097Z,62.82
2019-06-01T07:50:48.827Z,62.20
2019-06-01T07:53:15.598Z,62.35
2019-06-01T07:55:42.331Z,59.93
2019-06-01T07:58:09.154Z,60.96
2019-06-01T08:00:35.913Z,60.59
2019-06-01T08:03:02.642Z,60.46
2019-06-01T08:05:30.185Z,60.90
2019-06-01T08:07:56.130Z,60.96
2019-06-01T08:10:24.450Z,58.77
2019-06-01T08:12:49.693Z,60.42
2019-06-01T08:15:16.419Z,57.19
2019-06-01T08:17:43.147Z,57.16
2019-06-01T08:20:09.915Z,58.33
2019-06-01T08:22:36.662Z,59.10
2019-06-01T08:25:03.462Z,59.18
2019-06-01T08:27:30.625Z,57.20
2019-06-01T08:30:00.010Z,57.19
2019-06-01T08:32:26.742Z,56.03
2019-06-01T08:35:07.211Z,58.17
2019-06-01T08:37:20.207Z,56.22
2019-06-01T08:39:46.954Z,58.80
2019-06-01T08:42:13.673Z,57.59
2019-06-01T08:44:40.414Z,55.68
2019-06-01T08:47:07.219Z,54.26
2019-06-01T08:49:34.559Z,59.25
2019-06-01T08:52:00.685Z,57.26
2019-06-01T08:54:28.094Z,56.05
2019-06-01T08:56:54.232Z,55.98
2019-06-01T08:59:20.979Z,52.07
2019-06-01T09:01:47.702Z,54.93
2019-06-01T09:04:14.450Z,53.11
2019-06-01T09:06:41.185Z,53.37
2019-06-01T09:09:11.501Z,52.80
2019-06-01T09:11:35.341Z,51.08
2019-06-01T09:14:01.462Z,50.53
2019-06-01T09:16:29.523Z,49.85
2019-06-01T09:18:54.912Z,47.82
2019-06-01T09:21:21.649Z,49.67
2019-06-01T09:23:48.371Z,48.21
2019-06-01T09:26:15.111Z,49.85
2019-06-01T09:28:41.838Z,50.77
2019-06-01T09:31:08.580Z,48.09
2019-06-01T09:33:36.893Z,47.26
2019-06-01T09:36:02.054Z,49.26
2019-06-01T09:38:29.599Z,49.18
2019-06-01T09:40:55.536Z,48.92
2019-06-01T09:43:22.260Z,44.79
2019-06-01T09:45:52.989Z,46.66
2019-06-01T09:48:15.732Z,48.41
2019-06-01T09:50:42.478Z,48.81
2019-06-01T09:53:09.214Z,45.33
2019-06-01T09:55:36.464Z,42.83
2019-06-01T09:58:02.690Z,45.23
2019-06-01T10:00:30.318Z,45.26
2019-06-01T10:02:56.202Z,42.51
2019-06-01T10:05:22.944Z,43.50
2019-06-01T10:07:49.672Z,41.19
2019-06-01T10:10:16.441Z,39.71
2019-06-01T10:12:43.178Z,40.17
2019-06-01T10:15:09.918Z,40.99
2019-06-01T10:17:37.161Z,43.12
2019-06-01T10:20:03.758Z,40.10
2019-06-01T10:22:30.977Z,41.98
2019-06-01T10:24:57.250Z,40.66
2019-06-01T10:27:23.999Z,40.84
2019-06-01T10:29:50.723Z,41.76
2019-06-01T10:32:17.483Z,43.49
2019-06-01T10:34:44.243Z,40.69
2019-06-01T10:37:11.012Z,41.17
2019-06-01T10:39:37.754Z,39.87
2019-06-01T10:42:04.495Z,39.37
2019-06-01T10:44:31.644Z,39.45
2019-06-01T10:46:58.230Z,40.40
2019-06-01T10:49:24.969Z,41.18
2019-06-01T10:51:51.709Z,41.32
2019-06-01T10:54:18.442Z,41.23
2019-06-01T10:56:45.190Z,42.33
2019-06-01T10:59:11.921Z,41.20
2019-06-01T11:01:38.912Z,41.48
2019-06-01T11:04:05.412Z,40.98
2019-06-01T11:06:40.249Z,39.73
2019-06-01T11:08:58.946Z,40.60
2019-06-01T11:11:25.690Z,41.66
2019-06-01T11:13:52.439Z,41.80
2019-06-01T11:16:19.186Z,41.11
2019-06-01T11:18:45.916Z,42.38
2019-06-01T11:21:12.666Z,42.14
2019-06-01T11:23:42.762Z,40.95
2019-06-01T11:26:06.143Z,42.72
2019-06-01T11:28:33.837Z,43.23
2019-06-01T11:30:59.615Z,41.89
2019-06-01T11:33:26.460Z,43.33
2019-06-01T11:35:53.239Z,39.14
2019-06-01T11:38:19.961Z,41.47
2019-06-01T11:40:46.720Z,40.64
2019-06-01T11:43:13.442Z,44.21
2019-06-01T11:45:40.803Z,40.72
2019-06-01T11:48:06.936Z,43.62
2019-06-01T11:50:35.131Z,44.92
2019-06-01T11:53:00.429Z,40.98
2019-06-01T11:55:27.162Z,40.47
2019-06-01T11:57:53.950Z,40.88
2019-06-01T12:00:20.730Z,41.46
2019-06-01T12:02:47.475Z,40.55
2019-06-01T12:05:14.211Z,37.88
2019-06-01T12:07:41.975Z,38.09
2019-06-01T12:10:07.709Z,36.62
2019-06-01T12:12:35.901Z,37.55
2019-06-01T12:15:01.326Z,37.23
2019-06-01T12:17:28.048Z,38.58
2019-06-01T12:19:54.785Z,37.13
2019-06-01T12:22:21.547Z,38.12
2019-06-01T12:24:48.278Z,39.08
2019-06-01T12:27:15.086Z,37.04
2019-06-01T12:29:41.821Z,37.03
2019-06-01T12:32:08.571Z,38.66
2019-06-01T12:36:59.651Z,37.77
2019-06-01T12:39:26.380Z,37.54
2019-06-01T12:41:53.180Z,38.55
2019-06-01T12:44:19.865Z,37.28
2019-06-01T12:46:47.021Z,37.14
2019-06-01T12:49:13.370Z,36.41
2019-06-01T12:51:40.673Z,38.11
2019-06-01T12:54:06.882Z,36.57
2019-06-01T12:56:33.646Z,37.36
2019-06-01T12:59:00.462Z,35.63
2019-06-01T13:01:27.250Z,37.28
2019-06-01T13:03:54.005Z,37.43
2019-06-01T13:06:20.791Z,35.93
2019-06-01T13:08:47.564Z,39.99
2019-06-01T13:11:14.314Z,38.64
2019-06-01T13:13:41.272Z,37.06
2019-06-01T13:16:07.839Z,38.60
2019-06-01T13:18:34.592Z,38.48
2019-06-01T13:21:01.374Z,38.26
2019-06-01T13:23:28.169Z,37.74
2019-06-01T13:25:54.907Z,38.87
2019-06-01T13:28:37.331Z,37.27
2019-06-01T13:30:49.705Z,39.61
2019-06-01T13:33:15.538Z,38.27
2019-06-01T13:35:42.347Z,34.98
2019-06-01T13:38:12.179Z,36.81
2019-06-01T13:40:35.949Z,34.47
2019-06-01T13:43:02.798Z,35.89
2019-06-01T13:45:29.614Z,37.23
2019-06-01T13:47:56.367Z,37.65
2019-06-01T13:50:23.113Z,36.63
2019-06-01T13:52:50.093Z,35.47
2019-06-01T13:55:16.678Z,35.90
2019-06-01T13:57:44.196Z,37.12
2019-06-01T14:00:15.810Z,35.71
2019-06-01T14:02:41.415Z,34.94
2019-06-01T14:05:09.292Z,33.45
2019-06-01T14:07:37.637Z,32.19
2019-06-01T14:10:08.154Z,33.33
2019-06-01T14:12:39.272Z,34.25
2019-06-01T14:15:12.222Z,34.09
2019-06-01T14:17:40.803Z,34.59
2019-06-01T14:20:09.707Z,37.20
2019-06-01T14:22:37.788Z,36.33
2019-06-01T14:25:12.344Z,36.26
2019-06-01T14:27:34.209Z,37.46
2019-06-01T14:30:06.257Z,34.41
2019-06-01T14:32:34.865Z,34.81
2019-06-01T14:35:06.908Z,37.18
2019-06-01T14:37:34.588Z,35.07
2019-06-01T14:40:03.531Z,36.71
2019-06-01T14:42:31.968Z,37.32
2019-06-01T14:45:00.045Z,38.13
2019-06-01T14:47:29.408Z,36.60
2019-06-01T14:49:58.017Z,35.84
2019-06-01T14:52:27.220Z,36.21
2019-06-01T14:54:58.095Z,35.62
2019-06-01T14:57:25.298Z,34.95
2019-06-01T14:59:54.276Z,36.10
2019-06-01T15:02:25.127Z,32.81
2019-06-01T15:04:54.194Z,34.42
2019-06-01T15:07:21.223Z,32.25
2019-06-01T15:09:52.259Z,31.18
2019-06-01T15:12:21.121Z,33.83
2019-06-01T15:14:50.514Z,33.61
2019-06-01T15:17:17.423Z,32.89
2019-06-01T15:19:46.385Z,31.51
2019-06-01T15:22:16.499Z,32.34
2019-06-01T15:24:44.834Z,30.75
2019-06-01T15:27:16.433Z,33.12
2019-06-01T15:29:45.892Z,35.68
2019-06-01T15:32:16.057Z,31.61
2019-06-01T15:34:45.210Z,31.66
2019-06-01T15:37:14.468Z,34.20
2019-06-01T15:39:45.236Z,34.36
2019-06-01T15:42:12.246Z,30.03
2019-06-01T15:44:39.954Z,30.44
2019-06-01T15:47:12.560Z,32.37
2019-06-01T15:49:42.657Z,33.68
2019-06-01T15:52:13.218Z,38.54
2019-06-01T15:54:44.225Z,30.72
2019-06-01T15:57:12.884Z,30.76
2019-06-01T15:59:44.029Z,33.32
2019-06-01T16:02:12.498Z,32.37
2019-06-01T16:04:41.411Z,33.26
2019-06-01T16:07:09.679Z,33.51
2019-06-01T16:09:43.042Z,32.25
2019-06-01T16:12:11.414Z,33.71
2019-06-01T16:14:44.172Z,33.03
2019-06-01T16:17:13.443Z,33.58
2019-06-01T16:19:44.205Z,35.29
2019-06-01T16:22:13.895Z,34.32
2019-06-01T16:24:43.446Z,34.34
2019-06-01T16:27:11.778Z,35.55
2019-06-01T16:29:40.882Z,33.91
2019-06-01T16:32:12.373Z,35.64
2019-06-01T16:34:42.238Z,33.14
2019-06-01T16:37:12.095Z,34.46
2019-06-01T16:39:55.884Z,34.31
2019-06-01T16:42:09.897Z,36.56
2019-06-01T16:44:41.181Z,37.13
2019-06-01T16:47:12.001Z,35.26
2019-06-01T16:49:42.547Z,36.99
2019-06-01T16:52:11.769Z,35.75
2019-06-01T16:54:42.070Z,35.89
2019-06-01T16:57:12.681Z,37.85
2019-06-01T16:59:42.304Z,36.03
2019-06-01T17:02:11.096Z,36.35
2019-06-01T17:04:41.400Z,37.80
2019-06-01T17:07:11.336Z,36.51
2019-06-01T17:09:40.225Z,34.92
2019-06-01T17:12:08.018Z,34.29
2019-06-01T17:14:38.077Z,35.55
2019-06-01T17:17:07.572Z,35.39
2019-06-01T17:19:35.478Z,34.29
2019-06-01T17:22:05.512Z,33.94
2019-06-01T17:24:34.269Z,32.16
2019-06-01T17:27:04.004Z,30.58
2019-06-01T17:29:32.193Z,29.89
2019-06-01T17:32:19.021Z,29.66
2019-06-01T17:34:34.167Z,29.71
2019-06-01T17:37:02.741Z,30.04
2019-06-01T17:39:32.883Z,31.58
2019-06-01T17:42:02.389Z,29.81
2019-06-01T17:44:30.770Z,30.36
2019-06-01T17:47:06.304Z,31.31
2019-06-01T17:49:37.137Z,31.52
2019-06-01T17:52:05.845Z,32.10
2019-06-01T17:54:32.830Z,32.76
2019-06-01T17:57:01.227Z,32.35
2019-06-01T17:59:29.217Z,32.62
2019-06-01T18:01:58.500Z,33.98
2019-06-01T18:04:30.172Z,33.92
2019-06-01T18:07:01.699Z,35.16
2019-06-01T18:09:28.386Z,37.44
2019-06-01T18:11:57.539Z,37.24
2019-06-01T18:14:26.888Z,37.64
2019-06-01T18:16:55.042Z,36.80
2019-06-01T18:19:23.437Z,39.21
2019-06-01T18:21:52.900Z,39.99
2019-06-01T18:24:22.454Z,41.25
2019-06-01T18:26:51.672Z,42.81
2019-06-01T18:29:20.548Z,42.67
2019-06-01T18:31:48.254Z,44.31
2019-06-01T18:34:20.220Z,46.29
2019-06-01T18:36:53.965Z,46.92
2019-06-01T18:39:25.933Z,48.02
2019-06-01T18:41:57.348Z,49.01
2019-06-01T18:44:25.958Z,49.09
2019-06-01T18:46:54.253Z,50.75
2019-06-01T18:49:23.994Z,52.51
2019-06-01T18:51:53.818Z,51.47
2019-06-01T18:54:26.978Z,52.38
2019-06-01T18:57:09.038Z,51.34
2019-06-01T18:59:24.278Z,49.34
2019-06-01T19:01:55.480Z,50.02
2019-06-01T19:04:23.168Z,55.46
2019-06-01T19:06:53.099Z,55.62
2019-06-01T19:09:22.946Z,55.19
2019-06-01T19:11:52.439Z,57.53
2019-06-01T19:14:21.273Z,57.51
2019-06-01T19:16:50.828Z,57.26
2019-06-01T19:19:19.892Z,55.53
2019-06-01T19:21:48.444Z,58.81
2019-06-01T19:24:18.203Z,59.32
2019-06-01T19:26:48.723Z,59.82
2019-06-01T19:29:18.425Z,58.32
2019-06-01T19:31:47.331Z,60.54
2019-06-01T19:34:17.820Z,58.54
2019-06-01T19:36:46.052Z,62.25
2019-06-01T19:39:15.541Z,64.00
2019-06-01T19:41:45.621Z,64.84
2019-06-01T19:44:15.813Z,62.01
2019-06-01T19:46:43.442Z,64.19
2019-06-01T19:49:13.675Z,61.17
2019-06-01T19:51:41.138Z,62.64
2019-06-01T19:54:10.793Z,62.95
2019-06-01T19:56:38.614Z,63.09
2019-06-01T19:59:06.303Z,63.79
2019-06-01T20:01:37.418Z,63.91
2019-06-01T20:04:08.130Z,63.98
2019-06-01T20:06:37.532Z,63.43
2019-06-01T20:09:15.050Z,63.11
2019-06-01T20:12:01.018Z,63.46
2019-06-01T20:14:16.424Z,63.82
2019-06-01T20:16:46.421Z,64.75
2019-06-01T20:19:15.663Z,61.54
2019-06-01T20:21:46.240Z,64.72
2019-06-01T20:24:15.267Z,64.62
2019-06-01T20:26:49.385Z,61.93
2019-06-01T20:29:19.663Z,62.88
2019-06-01T20:31:47.459Z,60.59
2019-06-01T20:34:16.218Z,63.71
2019-06-01T20:36:45.190Z,63.64
2019-06-01T20:39:18.366Z,64.05
2019-06-01T20:41:48.363Z,64.72
2019-06-01T20:44:18.826Z,62.98
2019-06-01T20:46:46.942Z,64.88
2019-06-01T20:49:16.846Z,64.66
2019-06-01T20:51:46.385Z,62.93
2019-06-01T20:54:17.178Z,64.44
2019-06-01T20:56:48.124Z,64.20
2019-06-01T20:59:18.540Z,64.12
2019-06-01T21:01:45.590Z,64.81
2019-06-01T21:04:16.265Z,66.69
2019-06-01T21:06:45.356Z,67.99
2019-06-01T21:09:15.972Z,67.59
2019-06-01T21:11:46.267Z,68.42
2019-06-01T21:14:15.935Z,69.68
2019-06-01T21:16:44.336Z,68.68
2019-06-01T21:19:14.442Z,68.80
2019-06-01T21:21:43.953Z,68.90
2019-06-01T21:24:12.589Z,66.76
2019-06-01T21:26:44.036Z,68.21
2019-06-01T21:29:14.571Z,68.42
2019-06-01T21:31:41.986Z,68.61
2019-06-01T21:34:15.079Z,68.18
2019-06-01T21:36:43.042Z,65.97
2019-06-01T21:39:11.902Z,67.18
2019-06-01T21:41:40.646Z,68.29
2019-06-01T21:44:11.925Z,69.14
2019-06-01T21:46:40.842Z,68.21
2019-06-01T21:49:11.946Z,67.75
2019-06-01T21:51:42.314Z,68.66
2019-06-01T21:54:13.290Z,67.92
2019-06-01T21:56:46.265Z,68.04
2019-06-01T21:59:12.066Z,65.92
2019-06-01T22:01:41.544Z,69.51
2019-06-01T22:04:11.081Z,69.00
2019-06-01T22:06:39.729Z,68.69
2019-06-01T22:09:12.351Z,68.31
2019-06-01T22:11:41.333Z,66.98
2019-06-01T22:14:12.369Z,68.73
2019-06-01T22:16:40.407Z,66.75
2019-06-01T22:19:09.872Z,67.58
2019-06-01T22:24:15.042Z,69.38
2019-06-01T22:26:46.045Z,69.51
2019-06-01T22:29:18.501Z,70.20
2019-06-01T22:31:47.223Z,68.75
2019-06-01T22:34:18.562Z,70.10
2019-06-01T22:36:49.019Z,68.00
2019-06-01T22:39:21.001Z,71.06
2019-06-01T22:41:49.221Z,71.09
2019-06-01T22:44:20.070Z,70.45
2019-06-01T22:46:51.362Z,68.58
2019-06-01T22:49:24.723Z,71.08
2019-06-01T22:51:53.366Z,71.27
2019-06-01T22:54:25.260Z,71.91
2019-06-01T22:56:53.928Z,68.81
2019-06-01T22:59:24.453Z,71.92
2019-06-01T23:01:55.309Z,68.65
2019-06-01T23:04:25.386Z,71.61
2019-06-01T23:06:56.184Z,72.31
2019-06-01T23:09:25.520Z,73.60
2019-06-01T23:12:02.772Z,74.08
2019-06-01T23:14:35.006Z,76.33
2019-06-01T23:17:05.243Z,73.46
2019-06-01T23:19:36.592Z,74.76
2019-06-01T23:22:08.163Z,76.77
2019-06-01T23:24:38.551Z,74.80
2019-06-01T23:27:11.475Z,72.86
2019-06-01T23:29:39.709Z,74.49
2019-06-01T23:32:10.004Z,75.64
2019-06-01T23:34:42.220Z,72.38
2019-06-01T23:37:12.821Z,72.81
2019-06-01T23:39:43.457Z,73.82
2019-06-01T23:42:12.582Z,73.59
2019-06-01T23:44:40.361Z,74.37
2019-06-01T23:47:12.457Z,74.91
2019-06-01T23:49:41.385Z,72.47
2019-06-01T23:52:10.294Z,73.02
2019-06-01T23:54:39.433Z,73.09
2019-06-01T23:57:09.554Z,73.95
2019-06-01T23:59:37.862Z,74.31
